createdAt,value
2022-10-08T00:00:53.746Z,99.90
2022-10-08T00:03:22.609Z,99.90
2022-10-08T00:06:03.274Z,99.90
2022-10-08T00:08:32.334Z,99.90
2022-10-08T00:11:00.841Z,99.90
2022-10-08T00:13:29.780Z,99.90
2022-10-08T00:15:58.377Z,99.90
2022-10-08T00:18:24.949Z,99.90
2022-10-08T00:20:51.973Z,99.90
2022-10-08T00:23:18.510Z,99.90
2022-10-08T00:25:45.262Z,99.90
2022-10-08T00:28:13.735Z,99.90
2022-10-08T00:30:41.565Z,99.90
2022-10-08T00:33:10.164Z,99.90
2022-10-08T00:35:38.942Z,99.90
2022-10-08T00:38:07.301Z,99.90
2022-10-08T00:40:44.691Z,99.90
2022-10-08T00:43:16.017Z,99.90
2022-10-08T00:45:44.898Z,99.90
2022-10-08T00:48:25.436Z,99.90
2022-10-08T00:50:52.218Z,99.90
2022-10-08T00:53:18.802Z,99.90
2022-10-08T00:55:45.370Z,99.90
2022-10-08T00:58:17.010Z,99.90
2022-10-08T01:00:44.229Z,99.90
2022-10-08T01:03:10.953Z,99.90
2022-10-08T01:05:54.986Z,99.90
2022-10-08T01:08:28.229Z,99.90
2022-10-08T01:11:12.548Z,99.90
2022-10-08T01:14:00.308Z,99.90
2022-10-08T01:16:51.445Z,99.90
2022-10-08T01:19:44.007Z,99.90
2022-10-08T01:22:16.285Z,99.90
2022-10-08T01:25:15.661Z,99.90
2022-10-08T01:27:50.438Z,99.90
2022-10-08T01:30:18.886Z,99.90
2022-10-08T01:32:59.680Z,99.90
2022-10-08T01:35:34.525Z,99.90
2022-10-08T01:38:06.944Z,99.90
2022-10-08T01:40:37.069Z,99.90
2022-10-08T01:43:07.133Z,99.90
2022-10-08T01:45:40.516Z,99.90
2022-10-08T01:48:14.940Z,99.90
2022-10-08T01:50:48.670Z,99.90
2022-10-08T01:53:17.329Z,99.90
2022-10-08T01:55:50.677Z,99.90
2022-10-08T01:58:31.693Z,99.90
2022-10-08T02:01:12.003Z,99.90
2022-10-08T02:03:58.570Z,99.90
2022-10-08T02:06:26.212Z,99.90
2022-10-08T02:08:53.141Z,99.90
2022-10-08T02:11:20.705Z,99.90
2022-10-08T02:13:47.345Z,99.90
2022-10-08T02:16:26.080Z,99.90
2022-10-08T02:19:00.977Z,99.90
2022-10-08T02:21:29.490Z,99.90
2022-10-08T02:24:09.658Z,99.90
2022-10-08T02:26:42.462Z,99.90
2022-10-08T02:29:20.669Z,99.90
2022-10-08T02:31:56.217Z,99.90
2022-10-08T02:34:35.093Z,99.90
2022-10-08T02:37:21.260Z,99.90
2022-10-08T02:39:53.539Z,99.90
2022-10-08T02:42:24.205Z,99.90
2022-10-08T02:44:57.561Z,99.90
2022-10-08T02:47:29.131Z,99.90
2022-10-08T02:50:07.441Z,99.90
2022-10-08T02:52:39.719Z,99.90
2022-10-08T02:55:19.158Z,99.90
2022-10-08T02:57:56.852Z,99.90
2022-10-08T03:00:24.117Z,99.90
2022-10-08T03:03:30.096Z,99.90
2022-10-08T03:05:57.698Z,99.90
2022-10-08T03:08:24.635Z,99.90
2022-10-08T03:10:51.414Z,99.90
2022-10-08T03:13:18.817Z,99.90
2022-10-08T03:15:46.992Z,99.90
2022-10-08T03:18:14.387Z,99.90
2022-10-08T03:20:49.380Z,99.90
2022-10-08T03:23:18.004Z,99.90
2022-10-08T03:25:44.908Z,99.90
2022-10-08T03:28:12.160Z,99.90
2022-10-08T03:30:38.770Z,99.90
2022-10-08T03:33:05.392Z,99.90
2022-10-08T03:35:32.094Z,99.90
2022-10-08T03:37:58.686Z,99.90
2022-10-08T03:40:25.225Z,99.90
2022-10-08T03:42:51.937Z,99.90
2022-10-08T03:45:18.660Z,99.90
2022-10-08T03:47:51.089Z,99.90
2022-10-08T03:50:17.924Z,99.90
2022-10-08T03:52:44.871Z,99.90
2022-10-08T03:55:11.660Z,99.90
2022-10-08T03:57:38.222Z,99.90
2022-10-08T04:00:05.517Z,99.90
2022-10-08T04:02:34.907Z,99.90
2022-10-08T04:05:01.624Z,99.90
2022-10-08T04:07:28.170Z,99.90
2022-10-08T04:09:54.696Z,99.90
2022-10-08T04:12:21.238Z,99.90
2022-10-08T04:14:47.766Z,99.90
2022-10-08T04:17:14.357Z,99.90
2022-10-08T04:19:40.987Z,99.90
2022-10-08T04:22:07.562Z,99.90
2022-10-08T04:24:34.106Z,99.90
2022-10-08T04:27:00.644Z,99.90
2022-10-08T04:29:27.199Z,99.90
2022-10-08T04:31:53.747Z,99.90
2022-10-08T04:34:20.286Z,99.90
2022-10-08T04:36:53.412Z,99.90
2022-10-08T04:39:19.956Z,99.90
2022-10-08T04:41:46.534Z,99.90
2022-10-08T04:44:13.078Z,99.90
2022-10-08T04:46:39.656Z,99.90
2022-10-08T04:49:06.261Z,99.90
2022-10-08T04:51:32.816Z,99.90
2022-10-08T04:53:59.432Z,99.90
2022-10-08T04:56:28.503Z,99.90
2022-10-08T04:58:55.564Z,99.90
2022-10-08T05:01:23.616Z,99.90
2022-10-08T05:03:52.735Z,99.90
2022-10-08T05:06:21.939Z,99.90
2022-10-08T05:08:48.934Z,99.90
2022-10-08T05:11:16.986Z,99.90
2022-10-08T05:13:48.597Z,99.90
2022-10-08T05:16:17.123Z,99.90
2022-10-08T05:18:44.482Z,99.90
2022-10-08T05:21:13.229Z,99.90
2022-10-08T05:23:42.486Z,99.90
2022-10-08T05:26:28.557Z,99.90
2022-10-08T05:29:07.020Z,99.90
2022-10-08T05:31:36.702Z,99.90
2022-10-08T05:34:03.283Z,99.90
2022-10-08T05:36:34.056Z,99.90
2022-10-08T05:39:02.279Z,99.90
2022-10-08T05:41:31.445Z,99.90
2022-10-08T05:43:58.818Z,99.90
2022-10-08T05:46:26.975Z,99.90
2022-10-08T05:48:55.191Z,99.90
2022-10-08T05:51:22.872Z,99.90
2022-10-08T05:53:51.014Z,99.90
2022-10-08T05:56:20.393Z,99.90
2022-10-08T05:58:47.972Z,99.90
2022-10-08T06:01:20.186Z,99.90
2022-10-08T06:03:54.882Z,99.90
2022-10-08T06:06:22.721Z,99.90
2022-10-08T06:09:01.786Z,99.90
2022-10-08T06:11:30.425Z,99.90
2022-10-08T06:13:58.345Z,99.90
2022-10-08T06:16:25.753Z,99.90
2022-10-08T06:18:52.370Z,99.90
2022-10-08T06:21:21.614Z,99.90
2022-10-08T06:23:50.537Z,99.90
2022-10-08T06:26:18.098Z,99.90
2022-10-08T06:28:45.610Z,99.90
2022-10-08T06:31:12.725Z,99.90
2022-10-08T06:33:39.477Z,99.90
2022-10-08T06:36:08.365Z,99.90
2022-10-08T06:38:34.997Z,99.90
2022-10-08T06:41:01.991Z,99.90
2022-10-08T06:43:28.559Z,99.90
2022-10-08T06:45:56.481Z,99.90
2022-10-08T06:48:23.576Z,99.90
2022-10-08T06:51:01.598Z,99.90
2022-10-08T06:53:28.432Z,99.90
2022-10-08T06:56:07.459Z,99.90
2022-10-08T06:58:37.889Z,99.90
2022-10-08T07:01:17.989Z,99.90
2022-10-08T07:03:47.990Z,99.90
2022-10-08T07:06:14.554Z,99.90
2022-10-08T07:08:41.257Z,99.90
2022-10-08T07:11:11.311Z,99.90
2022-10-08T07:13:39.041Z,99.90
2022-10-08T07:16:26.820Z,99.90
2022-10-08T07:18:55.970Z,99.90
2022-10-08T07:21:22.989Z,99.90
2022-10-08T07:23:50.672Z,99.90
2022-10-08T07:26:20.250Z,99.90
2022-10-08T07:28:52.706Z,99.90
2022-10-08T07:31:27.891Z,99.90
2022-10-08T07:33:54.841Z,99.90
2022-10-08T07:36:23.221Z,99.90
2022-10-08T07:39:00.678Z,99.90
2022-10-08T07:41:29.046Z,98.20
2022-10-08T07:44:00.533Z,98.20
2022-10-08T07:46:32.726Z,98.00
2022-10-08T07:49:01.348Z,97.40
2022-10-08T07:51:29.927Z,94.90
2022-10-08T07:54:01.567Z,95.00
2022-10-08T07:56:30.208Z,94.20
2022-10-08T07:58:57.800Z,93.90
2022-10-08T08:01:29.616Z,93.90
2022-10-08T08:03:59.558Z,92.70
2022-10-08T08:06:26.585Z,91.80
2022-10-08T08:08:53.580Z,91.80
2022-10-08T08:11:22.741Z,91.10
2022-10-08T08:13:49.497Z,90.60
2022-10-08T08:16:18.970Z,90.50
2022-10-08T08:18:48.354Z,90.20
2022-10-08T08:21:17.862Z,88.30
2022-10-08T08:23:50.127Z,88.40
2022-10-08T08:26:24.484Z,88.80
2022-10-08T08:28:59.657Z,85.80
2022-10-08T08:31:28.938Z,85.40
2022-10-08T08:34:01.081Z,86.40
2022-10-08T08:36:30.523Z,90.50
2022-10-08T08:38:57.505Z,93.20
2022-10-08T08:41:35.972Z,94.00
2022-10-08T08:44:10.216Z,92.30
2022-10-08T08:46:41.028Z,91.60
2022-10-08T08:49:21.537Z,91.20
2022-10-08T08:51:48.203Z,88.90
2022-10-08T08:54:14.868Z,89.20
2022-10-08T08:56:41.850Z,87.20
2022-10-08T08:59:23.292Z,88.50
2022-10-08T09:01:51.035Z,86.90
2022-10-08T09:04:36.160Z,88.70
2022-10-08T09:07:07.893Z,90.40
2022-10-08T09:09:42.185Z,92.20
2022-10-08T09:12:37.083Z,94.30
2022-10-08T09:15:19.243Z,96.10
2022-10-08T09:17:48.767Z,98.10
2022-10-08T09:20:17.943Z,99.10
2022-10-08T09:22:45.683Z,99.90
2022-10-08T09:25:20.759Z,99.90
2022-10-08T09:27:58.504Z,99.90
2022-10-08T09:30:25.049Z,99.90
2022-10-08T09:32:54.556Z,99.90
2022-10-08T09:35:22.500Z,95.40
2022-10-08T09:37:51.116Z,94.80
2022-10-08T09:40:26.392Z,92.30
2022-10-08T09:43:23.414Z,92.10
2022-10-08T09:45:50.314Z,91.20
2022-10-08T09:48:23.130Z,90.70
2022-10-08T09:51:07.177Z,92.10
2022-10-08T09:53:39.820Z,95.10
2022-10-08T09:56:07.888Z,95.50
2022-10-08T09:58:54.865Z,93.80
2022-10-08T10:01:21.989Z,93.70
2022-10-08T10:04:02.475Z,92.80
2022-10-08T10:06:34.890Z,93.50
2022-10-08T10:09:38.237Z,95.20
2022-10-08T10:12:26.514Z,95.00
2022-10-08T10:15:10.867Z,94.00
2022-10-08T10:17:37.478Z,91.00
2022-10-08T10:20:14.188Z,89.10
2022-10-08T10:22:58.568Z,84.60
2022-10-08T10:25:58.012Z,83.50
2022-10-08T10:28:46.603Z,82.40
2022-10-08T10:31:46.905Z,85.80
2022-10-08T10:34:15.994Z,86.60
2022-10-08T10:36:51.913Z,89.10
2022-10-08T10:39:34.076Z,90.20
2022-10-08T10:42:24.297Z,92.10
2022-10-08T10:44:57.594Z,92.20
2022-10-08T10:47:32.034Z,90.80
2022-10-08T10:50:00.776Z,89.10
2022-10-08T10:52:49.400Z,86.80
2022-10-08T10:55:18.530Z,87.00
2022-10-08T10:58:06.240Z,90.00
2022-10-08T11:00:42.670Z,91.60
2022-10-08T11:03:28.040Z,93.40
2022-10-08T11:06:32.210Z,94.60
2022-10-08T11:09:04.630Z,94.80
2022-10-08T11:11:43.146Z,92.00
2022-10-08T11:14:34.406Z,90.70
2022-10-08T11:17:22.289Z,87.40
2022-10-08T11:19:57.347Z,81.30
2022-10-08T11:22:23.905Z,78.40
2022-10-08T11:25:06.373Z,76.00
2022-10-08T11:27:37.205Z,75.90
2022-10-08T11:30:14.868Z,75.10
2022-10-08T11:32:44.632Z,75.10
2022-10-08T11:35:29.339Z,77.40
2022-10-08T11:38:04.375Z,77.40
2022-10-08T11:40:44.483Z,76.50
2022-10-08T11:43:17.658Z,75.70
2022-10-08T11:45:46.083Z,76.20
2022-10-08T11:48:33.004Z,75.10
2022-10-08T11:51:37.544Z,72.40
2022-10-08T11:54:10.076Z,71.10
2022-10-08T11:56:40.400Z,73.30
2022-10-08T11:59:33.509Z,76.10
2022-10-08T12:02:03.318Z,80.70
2022-10-08T12:04:34.845Z,84.30
2022-10-08T12:07:03.339Z,89.30
2022-10-08T12:10:02.154Z,90.30
2022-10-08T12:12:50.948Z,90.10
2022-10-08T12:15:23.690Z,87.10
2022-10-08T12:18:26.435Z,85.00
2022-10-08T12:21:16.752Z,80.80
2022-10-08T12:23:44.491Z,76.80
2022-10-08T12:26:13.120Z,76.00
2022-10-08T12:28:42.830Z,74.70
2022-10-08T12:31:18.041Z,73.70
2022-10-08T12:33:56.305Z,74.00
2022-10-08T12:37:02.012Z,74.20
2022-10-08T12:39:37.958Z,74.30
2022-10-08T12:42:14.235Z,74.40
2022-10-08T12:44:51.135Z,73.20
2022-10-08T12:47:25.030Z,75.00
2022-10-08T12:50:13.477Z,82.50
2022-10-08T12:52:40.117Z,78.80
2022-10-08T12:55:15.010Z,77.40
2022-10-08T12:57:42.538Z,78.70
2022-10-08T13:00:28.840Z,82.70
2022-10-08T13:03:01.683Z,86.40
2022-10-08T13:05:37.040Z,90.10
2022-10-08T13:08:34.705Z,90.10
2022-10-08T13:11:09.358Z,90.00
2022-10-08T13:13:39.055Z,88.10
2022-10-08T13:16:14.665Z,88.80
2022-10-08T13:18:44.486Z,85.20
2022-10-08T13:21:32.771Z,84.00
2022-10-08T13:24:01.801Z,86.10
2022-10-08T13:26:49.648Z,87.10
2022-10-08T13:29:22.547Z,86.30
2022-10-08T13:32:12.282Z,86.00
2022-10-08T13:34:54.825Z,87.20
2022-10-08T13:37:21.329Z,82.20
2022-10-08T13:39:56.744Z,82.40
2022-10-08T13:42:50.759Z,79.60
2022-10-08T13:45:20.313Z,81.10
2022-10-08T13:47:47.458Z,83.40
2022-10-08T13:50:14.726Z,82.40
2022-10-08T13:52:45.126Z,81.00
2022-10-08T13:55:31.892Z,82.60
2022-10-08T13:58:01.829Z,79.90
2022-10-08T14:00:33.599Z,77.90
2022-10-08T14:03:00.185Z,78.80
2022-10-08T14:05:29.760Z,79.60
2022-10-08T14:07:59.640Z,77.30
2022-10-08T14:10:26.917Z,76.50
2022-10-08T14:12:53.633Z,78.00
2022-10-08T14:15:20.474Z,80.30
2022-10-08T14:17:49.444Z,82.30
2022-10-08T14:20:16.606Z,85.30
2022-10-08T14:22:43.194Z,86.50
2022-10-08T14:25:18.390Z,85.20
2022-10-08T14:27:45.522Z,84.00
2022-10-08T14:30:13.330Z,84.20
2022-10-08T14:32:39.916Z,84.30
2022-10-08T14:35:06.763Z,85.90
2022-10-08T14:37:34.848Z,88.20
2022-10-08T14:40:02.114Z,89.50
2022-10-08T14:42:28.659Z,91.10
2022-10-08T14:44:55.434Z,92.80
2022-10-08T14:47:21.958Z,93.90
2022-10-08T14:49:48.484Z,95.10
2022-10-08T14:52:15.029Z,95.10
2022-10-08T14:54:41.616Z,95.70
2022-10-08T14:57:08.179Z,96.30
2022-10-08T14:59:39.778Z,97.20
2022-10-08T15:02:08.824Z,98.00
2022-10-08T15:04:35.395Z,99.20
2022-10-08T15:07:01.948Z,99.90
2022-10-08T15:09:28.613Z,99.90
2022-10-08T15:11:55.137Z,99.90
2022-10-08T15:14:21.701Z,99.90
2022-10-08T15:16:48.423Z,99.90
2022-10-08T15:19:16.240Z,99.90
2022-10-08T15:21:45.208Z,99.90
2022-10-08T15:24:11.782Z,99.90
2022-10-08T15:26:38.506Z,99.90
2022-10-08T15:29:05.126Z,99.90
2022-10-08T15:31:31.729Z,99.90
2022-10-08T15:34:01.702Z,99.90
2022-10-08T15:36:31.246Z,99.90
2022-10-08T15:39:07.486Z,99.90
2022-10-08T15:41:35.854Z,99.90
2022-10-08T15:44:10.968Z,99.90
2022-10-08T15:46:37.886Z,99.90
2022-10-08T15:49:05.176Z,99.90
2022-10-08T15:51:33.585Z,99.90
2022-10-08T15:54:00.930Z,99.90
2022-10-08T15:56:28.333Z,99.90
2022-10-08T15:58:54.974Z,99.90
2022-10-08T16:01:23.719Z,99.90
2022-10-08T16:03:52.755Z,99.90
2022-10-08T16:06:22.087Z,99.90
2022-10-08T16:08:48.997Z,99.90
2022-10-08T16:11:18.314Z,99.90
2022-10-08T16:13:47.545Z,99.90
2022-10-08T16:16:16.967Z,99.90
2022-10-08T16:18:45.293Z,99.90
2022-10-08T16:21:13.160Z,99.90
2022-10-08T16:23:40.336Z,99.90
2022-10-08T16:26:09.127Z,99.90
2022-10-08T16:28:38.392Z,99.90
2022-10-08T16:31:06.181Z,99.90
2022-10-08T16:33:33.513Z,99.90
2022-10-08T16:36:08.886Z,99.90
2022-10-08T16:38:38.529Z,99.90
2022-10-08T16:41:19.991Z,99.90
2022-10-08T16:43:49.538Z,99.90
2022-10-08T16:46:20.759Z,99.90
2022-10-08T16:49:16.438Z,99.90
2022-10-08T16:51:46.870Z,99.90
2022-10-08T16:54:16.125Z,99.90
2022-10-08T16:56:44.745Z,99.90
2022-10-08T16:59:15.344Z,99.90
2022-10-08T17:01:47.694Z,99.90
2022-10-08T17:04:16.081Z,99.90
2022-10-08T17:06:43.194Z,99.90
2022-10-08T17:09:11.462Z,99.90
2022-10-08T17:11:39.166Z,99.90
2022-10-08T17:14:07.477Z,99.90
2022-10-08T17:16:35.272Z,99.90
2022-10-08T17:19:02.413Z,99.90
2022-10-08T17:21:29.881Z,99.90
2022-10-08T17:23:59.894Z,99.90
2022-10-08T17:26:27.786Z,99.90
2022-10-08T17:28:54.987Z,99.90
2022-10-08T17:31:27.115Z,99.90
2022-10-08T17:33:53.832Z,99.90
2022-10-08T17:36:26.786Z,99.90
2022-10-08T17:38:59.543Z,99.90
2022-10-08T17:41:28.058Z,99.90
2022-10-08T17:43:56.389Z,99.90
2022-10-08T17:46:31.868Z,99.90
2022-10-08T17:48:59.060Z,99.90
2022-10-08T17:51:28.002Z,99.90
2022-10-08T17:53:56.862Z,99.90
2022-10-08T17:56:24.014Z,99.90
2022-10-08T17:58:51.021Z,99.90
2022-10-08T18:01:26.904Z,99.90
2022-10-08T18:03:56.689Z,99.90
2022-10-08T18:06:25.529Z,99.90
2022-10-08T18:09:00.113Z,99.90
2022-10-08T18:11:28.426Z,99.90
2022-10-08T18:13:55.096Z,99.90
2022-10-08T18:16:23.107Z,99.90
2022-10-08T18:18:49.716Z,99.90
2022-10-08T18:21:18.569Z,99.90
2022-10-08T18:23:48.545Z,99.90
2022-10-08T18:26:22.795Z,99.90
2022-10-08T18:28:55.003Z,99.90
2022-10-08T18:31:23.861Z,99.90
2022-10-08T18:33:55.001Z,99.90
2022-10-08T18:36:24.179Z,99.90
2022-10-08T18:39:09.892Z,99.90
2022-10-08T18:41:40.972Z,99.90
2022-10-08T18:44:14.488Z,99.90
2022-10-08T18:46:44.369Z,99.90
2022-10-08T18:49:17.130Z,99.90
2022-10-08T18:51:44.377Z,99.90
2022-10-08T18:54:11.537Z,99.90
2022-10-08T18:56:40.666Z,99.90
2022-10-08T18:59:11.505Z,99.90
2022-10-08T19:01:40.691Z,99.90
2022-10-08T19:04:11.739Z,99.90
2022-10-08T19:06:41.777Z,99.90
2022-10-08T19:09:09.244Z,99.90
2022-10-08T19:11:45.307Z,99.90
2022-10-08T19:14:14.523Z,99.90
2022-10-08T19:16:41.333Z,99.90
2022-10-08T19:19:12.364Z,99.90
2022-10-08T19:21:39.242Z,99.90
2022-10-08T19:24:08.031Z,99.90
2022-10-08T19:26:34.914Z,99.90
2022-10-08T19:29:01.698Z,99.90
2022-10-08T19:31:31.348Z,99.90
2022-10-08T19:34:06.714Z,99.90
2022-10-08T19:36:38.344Z,99.90
2022-10-08T19:39:09.464Z,99.90
2022-10-08T19:41:36.680Z,99.90
2022-10-08T19:44:04.258Z,99.90
2022-10-08T19:46:31.332Z,99.90
2022-10-08T19:49:01.453Z,99.90
2022-10-08T19:51:29.538Z,99.90
2022-10-08T19:53:57.335Z,99.90
2022-10-08T19:56:24.029Z,99.90
2022-10-08T19:58:55.286Z,99.90
2022-10-08T20:01:33.838Z,99.90
2022-10-08T20:04:03.718Z,99.90
2022-10-08T20:06:31.720Z,99.90
2022-10-08T20:09:01.357Z,99.90
2022-10-08T20:11:30.106Z,99.90
2022-10-08T20:13:57.326Z,99.90
2022-10-08T20:16:27.783Z,99.90
2022-10-08T20:19:00.193Z,99.90
2022-10-08T20:21:28.635Z,99.90
2022-10-08T20:23:55.213Z,99.90
2022-10-08T20:26:24.745Z,99.90
2022-10-08T20:28:54.507Z,99.90
2022-10-08T20:31:24.350Z,99.90
2022-10-08T20:34:10.061Z,99.90
2022-10-08T20:36:36.869Z,99.90
2022-10-08T20:39:03.727Z,99.90
2022-10-08T20:41:31.225Z,99.90
2022-10-08T20:44:02.812Z,99.90
2022-10-08T20:46:30.031Z,99.90
2022-10-08T20:48:56.899Z,99.90
2022-10-08T20:51:27.788Z,99.90
2022-10-08T20:53:55.497Z,99.90
2022-10-08T20:56:23.268Z,99.90
2022-10-08T20:58:50.386Z,99.90
2022-10-08T21:01:20.182Z,99.90
2022-10-08T21:03:47.342Z,99.90
2022-10-08T21:06:16.881Z,99.90
2022-10-08T21:08:45.585Z,99.90
2022-10-08T21:11:18.124Z,99.90
2022-10-08T21:13:45.252Z,99.90
2022-10-08T21:16:20.210Z,99.90
2022-10-08T21:18:51.708Z,99.90
2022-10-08T21:21:19.409Z,99.90
2022-10-08T21:23:47.371Z,99.90
2022-10-08T21:26:22.381Z,99.90
2022-10-08T21:28:51.100Z,99.90
2022-10-08T21:31:19.518Z,99.90
2022-10-08T21:33:48.977Z,99.90
2022-10-08T21:36:24.901Z,99.90
2022-10-08T21:38:51.661Z,99.90
2022-10-08T21:41:20.158Z,99.90
2022-10-08T21:43:52.536Z,99.90
2022-10-08T21:46:24.614Z,99.90
2022-10-08T21:48:57.354Z,99.90
2022-10-08T21:51:24.652Z,99.90
2022-10-08T21:53:57.712Z,99.90
2022-10-08T21:56:27.418Z,99.90
2022-10-08T21:58:55.998Z,99.90
2022-10-08T22:01:36.746Z,99.90
2022-10-08T22:04:15.126Z,99.90
2022-10-08T22:06:44.444Z,99.90
2022-10-08T22:09:14.112Z,99.90
2022-10-08T22:11:41.505Z,99.90
2022-10-08T22:14:08.645Z,99.90
2022-10-08T22:16:35.468Z,99.90
2022-10-08T22:19:02.076Z,99.90
2022-10-08T22:21:28.694Z,99.90
2022-10-08T22:23:55.552Z,99.90
2022-10-08T22:26:27.716Z,99.90
2022-10-08T22:28:54.364Z,99.90
2022-10-08T22:31:21.399Z,99.90
2022-10-08T22:33:48.732Z,99.90
2022-10-08T22:36:21.940Z,99.90
2022-10-08T22:38:49.335Z,99.90
2022-10-08T22:41:19.201Z,99.90
2022-10-08T22:43:46.385Z,99.90
2022-10-08T22:46:18.811Z,99.90
2022-10-08T22:48:46.011Z,99.90
2022-10-08T22:51:15.007Z,99.90
2022-10-08T22:53:41.958Z,99.90
2022-10-08T22:56:12.654Z,99.90
2022-10-08T22:58:39.637Z,99.90
2022-10-08T23:01:08.826Z,99.90
2022-10-08T23:03:36.564Z,99.90
2022-10-08T23:06:27.352Z,99.90
2022-10-08T23:09:06.397Z,99.90
2022-10-08T23:11:34.066Z,99.90
2022-10-08T23:14:01.544Z,99.90
2022-10-08T23:16:29.950Z,99.90
2022-10-08T23:18:59.237Z,99.90
2022-10-08T23:21:26.346Z,99.90
2022-10-08T23:23:53.941Z,99.90
2022-10-08T23:26:21.403Z,99.90
2022-10-08T23:28:52.972Z,99.90
2022-10-08T23:31:26.468Z,99.90
2022-10-08T23:33:54.213Z,99.90
2022-10-08T23:36:27.596Z,99.90
2022-10-08T23:38:55.480Z,99.90
2022-10-08T23:41:22.729Z,99.90
2022-10-08T23:43:50.542Z,99.90
2022-10-08T23:46:20.109Z,99.90
2022-10-08T23:48:47.130Z,99.90
2022-10-08T23:51:15.087Z,99.90
2022-10-08T23:53:42.889Z,99.90
2022-10-08T23:56:10.638Z,99.90
2022-10-08T23:58:37.689Z,99.90
